Time;durP1;ratioP1;P1;durP2;ratioP2;P2;SDS_P1;SDS_P2;PMS_P1;PMS_P2;Temp;Humidity;BMP_temperature;BMP_pressure;BME280_temperature;BME280_humidity;BME280_pressure;Samples;Min_cycle;Max_cycle;Signal;HPM_P1;HPM_P2
2022/03/14 00:01:35;;;;;;;19.03;14.37;;;6.80;90.50;;;;;;5052779;28;20471;-66
2022/03/14 00:04:02;;;;;;;19.23;13.77;;;6.80;90.90;;;;;;5052704;28;20824;-65
2022/03/14 00:06:29;;;;;;;19.47;15.10;;;6.80;90.80;;;;;;5052549;28;20992;-65
2022/03/14 00:08:57;;;;;;;17.63;14.90;;;6.80;91.20;;;;;;5052952;28;20452;-65
2022/03/14 00:11:26;;;;;;;19.93;14.57;;;6.80;90.40;;;;;;5052484;28;20482;-65
2022/03/14 00:13:57;;;;;;;19.20;13.80;;;6.80;88.40;;;;;;5052382;28;20444;-64
2022/03/14 00:16:25;;;;;;;15.90;12.60;;;6.80;88.30;;;;;;5052128;28;20540;-65
2022/03/14 00:18:53;;;;;;;18.50;13.40;;;6.80;88.80;;;;;;5052287;28;20487;-65
2022/03/14 00:21:22;;;;;;;16.57;13.43;;;6.70;89.00;;;;;;5052591;28;20452;-65
2022/03/14 00:23:49;;;;;;;19.27;13.33;;;6.80;90.40;;;;;;5052244;28;20511;-65
2022/03/14 00:26:16;;;;;;;19.50;14.60;;;6.90;90.00;;;;;;5052322;28;20443;-65
2022/03/14 00:28:43;;;;;;;16.80;13.03;;;6.90;89.30;;;;;;5052390;28;20444;-65
2022/03/14 00:31:11;;;;;;;18.20;13.30;;;7.00;89.80;;;;;;5052215;28;21206;-64
2022/03/14 00:33:39;;;;;;;17.90;13.33;;;7.00;90.60;;;;;;5051238;28;20543;-65
2022/03/14 00:36:07;;;;;;;16.23;13.10;;;7.00;90.00;;;;;;5051800;28;20470;-65
2022/03/14 00:38:34;;;;;;;18.80;14.03;;;6.90;89.60;;;;;;5052198;28;20484;-65
2022/03/14 00:41:01;;;;;;;16.93;13.70;;;6.80;90.00;;;;;;5052163;28;20454;-65
2022/03/14 00:43:28;;;;;;;20.60;14.67;;;6.70;90.50;;;;;;5051964;28;20578;-64
2022/03/14 00:45:55;;;;;;;16.00;13.73;;;6.70;91.80;;;;;;5051331;28;20455;-64
2022/03/14 00:48:23;;;;;;;18.20;13.20;;;6.70;91.90;;;;;;5051884;28;20448;-65
2022/03/14 00:50:50;;;;;;;18.83;12.83;;;6.80;91.30;;;;;;5051866;28;20972;-65
2022/03/14 00:53:17;;;;;;;18.40;13.50;;;6.80;90.40;;;;;;5051789;28;20518;-64
2022/03/14 00:55:44;;;;;;;19.90;13.83;;;6.80;91.20;;;;;;5051437;28;20452;-65
2022/03/14 00:58:11;;;;;;;18.93;14.53;;;6.90;91.70;;;;;;5051625;28;20444;-64
2022/03/14 01:00:38;;;;;;;17.60;13.50;;;6.90;91.20;;;;;;5051622;28;20451;-65
2022/03/14 01:03:05;;;;;;;18.60;14.80;;;6.90;91.10;;;;;;5051338;28;20579;-65
2022/03/14 01:05:33;;;;;;;16.30;13.10;;;7.00;91.10;;;;;;5051232;28;20539;-64
2022/03/14 01:08:00;;;;;;;17.30;12.20;;;7.00;91.20;;;;;;5051758;28;20455;-64
2022/03/14 01:10:28;;;;;;;17.83;14.20;;;7.00;91.60;;;;;;5051593;28;21010;-65
2022/03/14 01:12:57;;;;;;;18.17;14.53;;;7.10;92.20;;;;;;5051656;28;20468;-65
2022/03/14 01:15:24;;;;;;;22.10;14.60;;;7.10;92.00;;;;;;5051151;28;20455;-64
2022/03/14 01:17:51;;;;;;;21.67;14.83;;;7.20;91.80;;;;;;5051393;28;20822;-65
2022/03/14 01:20:19;;;;;;;19.50;13.37;;;7.30;90.90;;;;;;5051732;28;20452;-64
2022/03/14 01:22:47;;;;;;;15.80;12.47;;;7.40;90.00;;;;;;5051170;28;20528;-65
2022/03/14 01:25:14;;;;;;;16.47;12.40;;;7.50;90.20;;;;;;5051002;28;20543;-65
2022/03/14 01:27:41;;;;;;;17.17;12.03;;;7.60;90.60;;;;;;5050908;28;20455;-65
2022/03/14 01:30:08;;;;;;;17.50;13.17;;;7.60;89.80;;;;;;5050933;28;20627;-65
2022/03/14 01:32:35;;;;;;;20.73;15.00;;;7.70;90.50;;;;;;5050938;28;20456;-65
2022/03/14 01:35:02;;;;;;;18.90;13.40;;;7.80;90.80;;;;;;5050545;28;20444;-64
2022/03/14 01:37:32;;;;;;;19.57;14.97;;;8.00;92.80;;;;;;5050718;28;20447;-65
2022/03/14 01:40:00;;;;;;;19.23;13.93;;;8.60;96.60;;;;;;5051036;28;20444;-65
2022/03/14 01:42:27;;;;;;;19.83;13.13;;;9.10;99.60;;;;;;5050409;28;20495;-65
2022/03/14 01:44:54;;;;;;;21.03;13.20;;;9.30;99.90;;;;;;5050193;28;20535;-64
2022/03/14 01:47:21;;;;;;;14.80;12.30;;;9.60;99.90;;;;;;5050696;28;20926;-64
2022/03/14 01:49:49;;;;;;;15.20;12.00;;;9.80;99.90;;;;;;5050945;28;20538;-65
2022/03/14 01:52:16;;;;;;;17.30;11.73;;;10.00;99.90;;;;;;5050624;28;20475;-65
2022/03/14 01:54:43;;;;;;;12.00;9.73;;;10.00;99.90;;;;;;5049752;28;20459;-64
2022/03/14 01:57:13;;;;;;;13.43;10.50;;;10.10;99.90;;;;;;5050905;28;20462;-65
2022/03/14 01:59:39;;;;;;;17.60;11.23;;;10.20;99.90;;;;;;5050761;28;20571;-65
2022/03/14 02:02:07;;;;;;;13.97;10.57;;;10.20;99.90;;;;;;5050507;28;20552;-64
2022/03/14 02:04:35;;;;;;;11.77;8.80;;;10.20;99.90;;;;;;5049986;28;20516;-64
2022/03/14 02:07:02;;;;;;;13.80;8.80;;;10.20;99.90;;;;;;5050665;28;20646;-64
2022/03/14 02:09:28;;;;;;;9.30;7.13;;;10.20;99.90;;;;;;5050194;28;20452;-64
2022/03/14 02:12:07;;;;;;;10.03;7.50;;;10.30;99.90;;;;;;5050233;28;20468;-64
2022/03/14 02:14:39;;;;;;;9.27;6.87;;;10.20;99.90;;;;;;5050062;28;20443;-65
2022/03/14 02:17:07;;;;;;;7.70;5.83;;;10.20;99.90;;;;;;5050290;28;20467;-66
2022/03/14 02:19:35;;;;;;;8.40;6.00;;;10.20;99.90;;;;;;5050204;28;20471;-65
2022/03/14 02:22:04;;;;;;;8.93;6.33;;;10.20;99.90;;;;;;5050288;28;20476;-65
2022/03/14 02:24:32;;;;;;;8.20;6.40;;;10.10;99.90;;;;;;5049854;28;20862;-65
2022/03/14 02:26:59;;;;;;;8.80;5.80;;;10.00;99.90;;;;;;5050186;28;20451;-65
2022/03/14 02:29:26;;;;;;;8.00;6.40;;;9.90;99.90;;;;;;5050249;28;20468;-65
2022/03/14 02:31:53;;;;;;;7.23;5.67;;;9.80;99.90;;;;;;5050226;28;20472;-65
2022/03/14 02:34:20;;;;;;;9.10;6.20;;;9.70;99.90;;;;;;5049556;28;20483;-64
2022/03/14 02:36:47;;;;;;;9.40;6.33;;;9.70;99.90;;;;;;5050122;28;20443;-64
2022/03/14 02:39:15;;;;;;;10.23;6.30;;;9.60;99.90;;;;;;5050131;28;20475;-64
2022/03/14 02:41:42;;;;;;;9.30;5.47;;;9.50;99.90;;;;;;5049912;28;20468;-65
2022/03/14 02:44:10;;;;;;;8.00;6.00;;;9.50;99.90;;;;;;5049604;28;20488;-64
2022/03/14 02:46:37;;;;;;;7.10;5.33;;;9.40;99.90;;;;;;5049898;28;20538;-65
2022/03/14 02:49:04;;;;;;;6.93;5.07;;;9.40;99.90;;;;;;5049781;28;20455;-64
2022/03/14 02:51:34;;;;;;;6.77;5.40;;;9.40;99.90;;;;;;5049982;28;20471;-65
2022/03/14 02:54:04;;;;;;;6.87;4.50;;;9.40;99.90;;;;;;5049786;28;20477;-65
2022/03/14 02:56:32;;;;;;;5.10;3.10;;;9.30;99.90;;;;;;5050023;28;20452;-65
2022/03/14 02:58:59;;;;;;;6.70;3.77;;;9.40;99.90;;;;;;5054231;28;20448;-65
2022/03/14 03:01:26;;;;;;;4.20;3.07;;;9.40;99.90;;;;;;5053695;28;20468;-65
2022/03/14 03:03:53;;;;;;;4.70;3.20;;;9.30;99.90;;;;;;5054124;28;20480;-65
2022/03/14 03:06:22;;;;;;;4.17;3.37;;;9.20;99.90;;;;;;5053625;28;20458;-65
2022/03/14 03:08:50;;;;;;;3.93;3.23;;;9.20;99.90;;;;;;5054061;28;20834;-65
2022/03/14 03:11:17;;;;;;;4.90;3.53;;;9.10;99.90;;;;;;5053651;28;20531;-64
2022/03/14 03:13:46;;;;;;;5.57;3.67;;;9.00;99.90;;;;;;5053596;28;20543;-66
2022/03/14 03:16:14;;;;;;;3.93;3.33;;;8.90;99.90;;;;;;5053365;28;20479;-66
2022/03/14 03:18:41;;;;;;;4.97;3.40;;;8.80;99.90;;;;;;5053711;28;20497;-65
2022/03/14 03:21:08;;;;;;;5.60;4.00;;;8.80;99.90;;;;;;5053568;28;20452;-65
2022/03/14 03:23:35;;;;;;;4.43;3.40;;;8.70;99.90;;;;;;5053336;28;20476;-64
2022/03/14 03:26:04;;;;;;;5.10;3.67;;;8.60;99.90;;;;;;5053051;28;20538;-64
2022/03/14 03:28:35;;;;;;;7.00;4.13;;;8.50;99.90;;;;;;5053212;28;20443;-64
2022/03/14 03:31:05;;;;;;;5.87;3.70;;;8.40;99.90;;;;;;5053354;28;20537;-64
2022/03/14 03:33:32;;;;;;;7.27;4.47;;;8.30;99.90;;;;;;5053037;28;20791;-64
2022/03/14 03:35:58;;;;;;;6.87;4.50;;;8.40;99.90;;;;;;5053088;28;20447;-64
2022/03/14 03:38:25;;;;;;;4.37;3.10;;;8.40;99.90;;;;;;5052745;28;20448;-64
2022/03/14 03:40:52;;;;;;;5.27;3.43;;;8.40;99.90;;;;;;5052778;28;20458;-64
2022/03/14 03:43:19;;;;;;;5.20;3.27;;;8.40;99.90;;;;;;5052648;28;21000;-64
2022/03/14 03:45:46;;;;;;;5.87;3.67;;;8.30;99.90;;;;;;5052548;28;20447;-64
2022/03/14 03:48:14;;;;;;;4.80;3.40;;;8.30;99.90;;;;;;5052417;28;20483;-65
2022/03/14 03:50:41;;;;;;;4.67;3.43;;;8.30;99.90;;;;;;5052553;28;20546;-66
2022/03/14 03:53:08;;;;;;;6.93;3.80;;;8.30;99.90;;;;;;5052311;28;20896;-65
2022/03/14 03:55:35;;;;;;;5.80;4.43;;;8.30;99.90;;;;;;5051964;28;20450;-65
2022/03/14 03:58:02;;;;;;;5.23;3.83;;;8.20;99.90;;;;;;5052198;28;20452;-65
2022/03/14 04:00:29;;;;;;;4.77;3.80;;;8.20;99.90;;;;;;5052503;28;20456;-64
2022/03/14 04:02:57;;;;;;;4.90;3.97;;;8.20;99.90;;;;;;5052079;28;20820;-65
2022/03/14 04:05:27;;;;;;;4.33;3.37;;;8.30;99.90;;;;;;5051997;28;20448;-64
2022/03/14 04:07:57;;;;;;;5.20;4.03;;;8.30;99.90;;;;;;5052033;28;20452;-65
2022/03/14 04:10:27;;;;;;;5.40;3.87;;;8.20;99.90;;;;;;5051445;28;20535;-64
2022/03/14 04:12:57;;;;;;;5.37;4.20;;;8.30;99.90;;;;;;5051956;28;20468;-64
2022/03/14 04:15:24;;;;;;;4.30;3.70;;;8.30;99.90;;;;;;5051583;28;20926;-64
2022/03/14 04:17:53;;;;;;;5.23;3.70;;;8.30;99.90;;;;;;5051996;28;20472;-65
2022/03/14 04:20:22;;;;;;;4.13;3.63;;;8.30;99.90;;;;;;5051935;28;20440;-65
2022/03/14 04:22:50;;;;;;;4.80;3.80;;;8.30;99.90;;;;;;5052274;28;20981;-66
2022/03/14 04:25:17;;;;;;;6.30;4.30;;;8.30;99.90;;;;;;5051914;28;20469;-66
2022/03/14 04:27:44;;;;;;;5.90;4.40;;;8.30;99.90;;;;;;5052188;28;20454;-65
2022/03/14 04:30:12;;;;;;;5.40;4.37;;;8.30;99.90;;;;;;5052025;28;20440;-65
2022/03/14 04:32:39;;;;;;;4.00;3.30;;;8.20;99.90;;;;;;5051977;28;20502;-65
2022/03/14 04:35:07;;;;;;;5.50;4.57;;;8.20;99.90;;;;;;5051454;28;20436;-66
2022/03/14 04:37:34;;;;;;;5.40;3.93;;;8.20;99.90;;;;;;5051781;28;20432;-64
2022/03/14 04:40:02;;;;;;;5.20;4.10;;;8.10;99.90;;;;;;5051978;28;20452;-65
2022/03/14 04:42:29;;;;;;;5.73;3.83;;;8.10;99.90;;;;;;5051292;28;20460;-65
2022/03/14 04:44:56;;;;;;;5.80;4.20;;;8.20;99.90;;;;;;5052863;28;20490;-65
2022/03/14 04:47:22;;;;;;;5.13;4.10;;;8.20;99.90;;;;;;5054584;28;20448;-65
2022/03/14 04:49:49;;;;;;;9.43;5.13;;;8.20;99.90;;;;;;5054343;28;20440;-65
2022/03/14 04:52:16;;;;;;;4.80;4.30;;;8.20;99.90;;;;;;5055384;28;20500;-65
2022/03/14 04:54:44;;;;;;;7.60;5.30;;;8.20;99.90;;;;;;5054267;28;20454;-64
2022/03/14 04:57:13;;;;;;;5.97;4.80;;;8.20;99.90;;;;;;5052600;28;20479;-65
2022/03/14 04:59:40;;;;;;;5.27;4.53;;;8.30;99.90;;;;;;5052369;28;20448;-65
2022/03/14 05:02:07;;;;;;;5.20;4.17;;;8.30;99.90;;;;;;5051837;28;20892;-65
2022/03/14 05:04:34;;;;;;;5.23;4.50;;;8.20;99.90;;;;;;5051331;28;20479;-66
2022/03/14 05:07:01;;;;;;;6.23;4.90;;;8.20;99.90;;;;;;5051623;28;20448;-66
2022/03/14 05:09:28;;;;;;;7.00;5.17;;;8.20;99.90;;;;;;5051723;28;20456;-68
2022/03/14 05:11:55;;;;;;;5.53;4.67;;;8.10;99.90;;;;;;5051303;28;20924;-65
2022/03/14 05:14:23;;;;;;;4.77;4.00;;;8.10;99.90;;;;;;5050945;28;20440;-66
2022/03/14 05:16:50;;;;;;;5.80;4.60;;;8.00;99.90;;;;;;5050906;28;20447;-66
2022/03/14 05:19:17;;;;;;;6.00;4.37;;;8.00;99.90;;;;;;5051259;28;20542;-65
2022/03/14 05:21:44;;;;;;;6.60;5.40;;;8.00;99.90;;;;;;5050858;28;20873;-67
2022/03/14 05:24:11;;;;;;;6.47;5.20;;;8.00;99.90;;;;;;5050527;28;20479;-65
2022/03/14 05:26:38;;;;;;;7.50;5.87;;;8.00;99.90;;;;;;5051132;28;20448;-65
2022/03/14 05:29:05;;;;;;;5.90;5.10;;;8.10;99.90;;;;;;5050888;28;20483;-65
2022/03/14 05:31:33;;;;;;;6.20;5.27;;;8.10;99.90;;;;;;5050912;28;20464;-65
2022/03/14 05:34:00;;;;;;;6.40;5.20;;;8.10;99.90;;;;;;5051033;28;20448;-65
2022/03/14 05:36:27;;;;;;;6.83;5.73;;;8.20;99.90;;;;;;5050722;28;20497;-65
2022/03/14 05:38:54;;;;;;;11.07;6.37;;;8.20;99.90;;;;;;5051113;28;20540;-65
2022/03/14 05:41:20;;;;;;;6.33;5.47;;;8.20;99.90;;;;;;5050830;28;20821;-68
2022/03/14 05:43:47;;;;;;;8.00;6.47;;;8.20;99.90;;;;;;5050676;28;20479;-67
2022/03/14 05:46:14;;;;;;;6.80;5.40;;;8.20;99.90;;;;;;5050190;28;20444;-65
2022/03/14 05:48:42;;;;;;;6.90;5.63;;;8.20;99.90;;;;;;5050501;28;20826;-64
2022/03/14 05:51:09;;;;;;;8.60;5.83;;;8.20;99.90;;;;;;5050500;28;20448;-65
2022/03/14 05:53:36;;;;;;;8.80;6.03;;;8.10;99.90;;;;;;5050486;28;20484;-65
2022/03/14 05:56:03;;;;;;;9.70;6.27;;;8.10;99.90;;;;;;5050155;28;20462;-65
2022/03/14 05:58:30;;;;;;;7.00;6.30;;;8.10;99.90;;;;;;5047589;28;20458;-66
2022/03/14 06:00:58;;;;;;;7.20;6.40;;;8.00;99.90;;;;;;5049001;28;20872;-66
2022/03/14 06:03:25;;;;;;;6.70;5.80;;;8.00;99.90;;;;;;5049067;28;20459;-65
2022/03/14 06:05:54;;;;;;;7.17;5.60;;;8.00;99.90;;;;;;5054367;28;20522;-65
2022/03/14 06:08:21;;;;;;;8.63;6.63;;;8.00;99.90;;;;;;5056563;28;20447;-65
2022/03/14 06:10:48;;;;;;;9.70;7.30;;;8.10;99.90;;;;;;5049663;28;20501;-65
2022/03/14 06:13:16;;;;;;;7.00;6.30;;;8.10;99.90;;;;;;5049049;28;20472;-64
2022/03/14 06:15:42;;;;;;;7.90;6.10;;;8.10;99.90;;;;;;5049336;28;20526;-65
2022/03/14 06:18:09;;;;;;;7.53;5.90;;;8.20;99.90;;;;;;5048990;28;20535;-65
2022/03/14 06:20:37;;;;;;;8.20;6.27;;;8.20;99.90;;;;;;5045604;28;20539;-65
2022/03/14 06:23:05;;;;;;;6.63;5.30;;;8.20;99.90;;;;;;5053947;28;20518;-65
2022/03/14 06:25:32;;;;;;;10.90;6.30;;;8.20;99.90;;;;;;5048294;28;20487;-65
2022/03/14 06:27:59;;;;;;;9.43;6.17;;;8.10;99.90;;;;;;5049416;28;20949;-65
2022/03/14 06:30:26;;;;;;;8.70;5.37;;;8.10;99.90;;;;;;5056161;28;20461;-65
2022/03/14 06:32:52;;;;;;;6.33;4.77;;;8.10;99.90;;;;;;5048785;28;20474;-65
2022/03/14 06:35:20;;;;;;;4.90;3.57;;;8.10;99.90;;;;;;5048745;28;20930;-65
2022/03/14 06:37:47;;;;;;;3.50;2.67;;;8.10;99.90;;;;;;5049331;28;20455;-65
2022/03/14 06:40:16;;;;;;;3.43;2.27;;;8.00;99.90;;;;;;5048978;28;20444;-65
2022/03/14 06:42:49;;;;;;;3.37;1.90;;;8.00;99.90;;;;;;5049365;28;20504;-65
2022/03/14 06:45:20;;;;;;;3.23;2.70;;;7.90;99.90;;;;;;5048889;28;20946;-67
2022/03/14 06:47:47;;;;;;;4.17;2.40;;;8.00;99.90;;;;;;5059642;28;20541;-65
2022/03/14 06:50:14;;;;;;;3.20;1.93;;;8.00;99.90;;;;;;5061462;28;20451;-65
2022/03/14 06:52:41;;;;;;;2.50;1.60;;;8.00;99.90;;;;;;5051884;28;20482;-65
2022/03/14 06:55:10;;;;;;;3.00;1.40;;;8.00;99.90;;;;;;5058335;28;20452;-65
2022/03/14 06:57:38;;;;;;;5.13;3.03;;;8.00;99.90;;;;;;5053487;28;20454;-66
2022/03/14 07:00:07;;;;;;;2.83;1.63;;;8.00;99.90;;;;;;5051740;28;20563;-65
2022/03/14 07:02:35;;;;;;;3.17;1.53;;;8.00;99.90;;;;;;5048701;28;20476;-64
2022/03/14 07:05:02;;;;;;;2.50;1.17;;;7.90;99.90;;;;;;5047365;28;20483;-66
2022/03/14 07:07:29;;;;;;;4.37;1.50;;;7.90;99.90;;;;;;5048912;28;20551;-66
2022/03/14 07:09:55;;;;;;;3.50;1.33;;;7.90;99.90;;;;;;5040667;28;20464;-65
2022/03/14 07:12:22;;;;;;;4.63;1.37;;;7.90;99.90;;;;;;5046703;28;20472;-64
2022/03/14 07:14:50;;;;;;;4.50;1.63;;;8.00;99.90;;;;;;5047812;28;20436;-64
2022/03/14 07:17:17;;;;;;;2.73;1.20;;;8.10;99.90;;;;;;5048217;28;20458;-64
2022/03/14 07:19:46;;;;;;;3.30;1.30;;;8.20;99.90;;;;;;5048027;28;20443;-66
2022/03/14 07:22:18;;;;;;;5.33;1.80;;;8.20;99.90;;;;;;5048037;28;20553;-66
2022/03/14 07:24:46;;;;;;;3.57;1.50;;;8.20;99.90;;;;;;5047280;28;20555;-66
2022/03/14 07:27:13;;;;;;;4.30;1.33;;;8.20;99.90;;;;;;5049064;28;20909;-65
2022/03/14 07:29:40;;;;;;;3.77;1.07;;;8.30;99.90;;;;;;5048700;28;21095;-64
2022/03/14 07:32:09;;;;;;;3.90;1.50;;;8.40;99.90;;;;;;5048776;28;20474;-65
2022/03/14 07:34:36;;;;;;;2.20;1.10;;;8.40;99.90;;;;;;5048330;28;20961;-65
2022/03/14 07:37:03;;;;;;;3.33;1.17;;;8.40;99.90;;;;;;5048886;28;20451;-65
2022/03/14 07:39:30;;;;;;;3.70;1.50;;;8.50;99.90;;;;;;5049199;28;20986;-65
2022/03/14 07:41:57;;;;;;;2.70;1.20;;;8.60;99.90;;;;;;5049003;28;20559;-65
2022/03/14 07:44:24;;;;;;;3.70;1.27;;;8.70;99.90;;;;;;5051047;28;20476;-65
2022/03/14 07:46:51;;;;;;;3.23;1.20;;;8.80;99.90;;;;;;5052392;28;20444;-65
2022/03/14 07:49:20;;;;;;;3.20;1.20;;;8.80;99.90;;;;;;5052293;28;20456;-65
2022/03/14 07:51:48;;;;;;;3.73;1.30;;;8.90;99.90;;;;;;5052151;28;20479;-65
2022/03/14 07:54:15;;;;;;;4.80;1.30;;;9.00;99.90;;;;;;5052176;28;20455;-65
2022/03/14 07:56:43;;;;;;;6.50;1.63;;;9.10;99.90;;;;;;5052228;28;20902;-64
2022/03/14 07:59:10;;;;;;;3.03;1.40;;;9.20;99.90;;;;;;5052346;28;20975;-65
2022/03/14 08:01:37;;;;;;;3.30;1.20;;;9.40;99.90;;;;;;5052012;28;20829;-64
2022/03/14 08:04:04;;;;;;;3.73;1.30;;;9.50;99.90;;;;;;5051805;28;20443;-64
2022/03/14 08:06:35;;;;;;;3.37;1.30;;;9.70;99.90;;;;;;5051986;28;20487;-65
2022/03/14 08:09:02;;;;;;;2.93;1.00;;;10.00;99.90;;;;;;5051979;28;20460;-64
2022/03/14 08:11:29;;;;;;;4.43;1.40;;;10.30;99.90;;;;;;5051773;28;20464;-65
2022/03/14 08:13:58;;;;;;;5.00;1.50;;;10.70;99.90;;;;;;5051569;28;20923;-65
2022/03/14 08:16:25;;;;;;;3.70;1.43;;;11.10;99.90;;;;;;5051489;28;20456;-64
2022/03/14 08:18:52;;;;;;;5.60;1.60;;;11.00;99.90;;;;;;5051948;28;20454;-65
2022/03/14 08:21:18;;;;;;;5.53;1.90;;;10.90;99.90;;;;;;5051822;28;20440;-65
2022/03/14 08:23:47;;;;;;;4.90;1.53;;;10.70;99.90;;;;;;5051972;28;20820;-65
2022/03/14 08:26:15;;;;;;;6.23;1.87;;;10.60;99.90;;;;;;5051434;28;20484;-65
2022/03/14 08:28:43;;;;;;;3.57;1.90;;;10.60;99.90;;;;;;5052024;28;20593;-66
2022/03/14 08:31:10;;;;;;;4.47;1.60;;;10.50;99.90;;;;;;5052208;28;20542;-65
2022/03/14 08:33:39;;;;;;;4.47;1.50;;;10.50;99.90;;;;;;5052038;28;20839;-66
2022/03/14 08:36:07;;;;;;;3.80;1.10;;;10.50;99.90;;;;;;5052095;28;20546;-66
2022/03/14 08:38:34;;;;;;;4.20;1.30;;;10.40;99.90;;;;;;5051916;28;20487;-65
2022/03/14 08:41:02;;;;;;;2.73;1.20;;;10.40;99.90;;;;;;5051598;28;20455;-66
2022/03/14 08:43:29;;;;;;;4.60;1.43;;;10.30;99.90;;;;;;5051275;28;20478;-66
2022/03/14 08:45:56;;;;;;;5.70;1.57;;;10.10;99.90;;;;;;5051057;28;20567;-66
2022/03/14 08:48:23;;;;;;;4.20;1.60;;;10.00;99.90;;;;;;5051293;28;20444;-66
2022/03/14 08:50:50;;;;;;;6.53;1.77;;;10.20;99.90;;;;;;5051127;28;20543;-66
2022/03/14 08:53:17;;;;;;;4.50;1.77;;;10.50;99.90;;;;;;5050879;28;20567;-66
2022/03/14 08:55:44;;;;;;;8.33;1.97;;;10.80;99.90;;;;;;5050019;28;20448;-66
2022/03/14 08:58:13;;;;;;;3.40;1.10;;;11.00;99.90;;;;;;5051011;28;20450;-67
2022/03/14 09:00:40;;;;;;;5.13;1.37;;;11.10;99.90;;;;;;5051221;28;20895;-66
2022/03/14 09:03:07;;;;;;;5.70;1.17;;;11.20;99.90;;;;;;5050911;28;20468;-66
2022/03/14 09:05:34;;;;;;;4.00;1.60;;;11.10;99.90;;;;;;5050512;28;20573;-66
2022/03/14 09:08:03;;;;;;;4.63;1.40;;;11.10;99.90;;;;;;5051241;28;20452;-66
2022/03/14 09:10:31;;;;;;;2.70;1.03;;;11.40;99.90;;;;;;5051026;28;20463;-66
2022/03/14 09:12:58;;;;;;;4.30;1.60;;;11.60;99.90;;;;;;5051000;28;20474;-66
2022/03/14 09:15:26;;;;;;;5.40;1.73;;;11.80;99.90;;;;;;5050651;28;20448;-66
2022/03/14 09:17:56;;;;;;;3.70;1.40;;;12.10;99.90;;;;;;5050623;28;20459;-66
2022/03/14 09:20:25;;;;;;;4.17;1.17;;;12.30;99.90;;;;;;5050580;28;20490;-66
2022/03/14 09:22:53;;;;;;;3.30;1.63;;;12.30;99.90;;;;;;5050777;28;21083;-66
2022/03/14 09:25:21;;;;;;;6.50;1.40;;;12.30;99.90;;;;;;5050289;28;20595;-66
2022/03/14 09:27:49;;;;;;;8.60;1.60;;;12.20;99.90;;;;;;5050622;28;20444;-66
2022/03/14 09:30:18;;;;;;;4.33;1.30;;;12.20;99.90;;;;;;5050495;28;20451;-66
2022/03/14 09:32:46;;;;;;;8.30;1.83;;;12.20;99.90;;;;;;5050368;28;20475;-66
2022/03/14 09:35:14;;;;;;;4.90;1.50;;;12.40;99.90;;;;;;5050114;28;20444;-66
2022/03/14 09:37:41;;;;;;;5.07;2.03;;;12.50;99.90;;;;;;5050484;28;20452;-67
2022/03/14 09:40:11;;;;;;;3.97;1.50;;;12.60;99.90;;;;;;5050387;28;20451;-67
2022/03/14 09:42:40;;;;;;;5.20;1.27;;;12.50;99.90;;;;;;5050608;28;20567;-66
2022/03/14 09:45:08;;;;;;;4.67;1.50;;;12.70;99.90;;;;;;5049926;28;20480;-67
2022/03/14 09:47:37;;;;;;;6.07;1.30;;;12.90;99.90;;;;;;5049933;28;20517;-67
2022/03/14 09:50:11;;;;;;;5.43;1.50;;;13.10;99.90;;;;;;5050183;28;20444;-66
2022/03/14 09:52:40;;;;;;;6.00;1.50;;;13.40;99.90;;;;;;5049950;28;20521;-68
2022/03/14 09:55:08;;;;;;;7.57;1.37;;;13.30;99.90;;;;;;5049546;28;20494;-67
2022/03/14 09:57:37;;;;;;;5.27;1.40;;;13.30;99.90;;;;;;5049935;28;21015;-66
2022/03/14 10:00:06;;;;;;;3.20;1.20;;;13.20;99.40;;;;;;5049960;28;20841;-66
2022/03/14 10:02:36;;;;;;;5.90;1.40;;;13.20;99.30;;;;;;5049761;28;20499;-66
2022/03/14 10:05:06;;;;;;;3.07;0.93;;;13.20;99.30;;;;;;5049490;28;20567;-66
2022/03/14 10:07:35;;;;;;;3.20;1.00;;;13.40;98.40;;;;;;5049722;28;20447;-67
2022/03/14 10:10:04;;;;;;;4.03;1.73;;;13.50;98.80;;;;;;5049746;28;20452;-66
2022/03/14 10:12:32;;;;;;;3.80;1.57;;;13.50;98.70;;;;;;5049725;28;20554;-66
2022/03/14 10:14:59;;;;;;;3.63;1.20;;;13.60;98.40;;;;;;5049507;28;20558;-66
2022/03/14 10:17:27;;;;;;;5.57;1.20;;;14.00;98.60;;;;;;5050127;28;20486;-66
2022/03/14 10:19:55;;;;;;;5.90;1.60;;;14.20;96.80;;;;;;5050087;28;20452;-66
2022/03/14 10:22:22;;;;;;;3.47;1.23;;;14.40;96.70;;;;;;5049856;28;20471;-66
2022/03/14 10:25:03;;;;;;;3.50;1.20;;;14.70;96.80;;;;;;5049578;28;20459;-66
2022/03/14 10:27:30;;;;;;;3.83;1.20;;;14.80;94.80;;;;;;5049810;28;20558;-67
2022/03/14 10:29:57;;;;;;;2.40;1.20;;;14.90;95.90;;;;;;5049859;28;20455;-66
2022/03/14 10:32:30;;;;;;;3.70;1.50;;;15.20;95.20;;;;;;5049618;28;20562;-66
2022/03/14 10:35:00;;;;;;;6.80;1.53;;;15.00;93.50;;;;;;5049376;28;20448;-66
2022/03/14 10:37:28;;;;;;;8.80;1.50;;;14.50;93.50;;;;;;5049496;28;20490;-67
2022/03/14 10:40:02;;;;;;;2.83;1.13;;;14.40;94.80;;;;;;5049349;28;20534;-66
2022/03/14 10:42:29;;;;;;;4.07;1.03;;;14.20;94.70;;;;;;5049548;28;20542;-66
2022/03/14 10:44:56;;;;;;;3.37;1.10;;;14.10;94.80;;;;;;5049019;28;20483;-66
2022/03/14 10:47:26;;;;;;;4.20;1.60;;;14.60;95.50;;;;;;5049405;28;20444;-67
2022/03/14 10:49:54;;;;;;;3.60;1.43;;;15.50;94.50;;;;;;5049457;28;20855;-67
2022/03/14 10:52:22;;;;;;;3.17;1.10;;;16.20;92.60;;;;;;5049198;28;20468;-64
2022/03/14 10:54:49;;;;;;;6.03;1.37;;;16.40;90.70;;;;;;5049228;28;20455;-66
2022/03/14 10:57:20;;;;;;;4.00;1.30;;;16.10;90.10;;;;;;5049552;28;20443;-67
2022/03/14 10:59:48;;;;;;;3.43;1.50;;;15.40;91.90;;;;;;5053345;28;20443;-65
2022/03/14 11:02:19;;;;;;;4.90;1.40;;;14.60;91.40;;;;;;5053454;28;20507;-64
2022/03/14 11:04:48;;;;;;;3.23;1.17;;;14.10;92.40;;;;;;5053287;28;20859;-64
2022/03/14 11:07:17;;;;;;;5.20;1.40;;;14.10;93.20;;;;;;5053743;28;20542;-64
2022/03/14 11:09:46;;;;;;;4.30;1.60;;;14.20;92.70;;;;;;5051472;28;20444;-65
2022/03/14 11:12:15;;;;;;;4.30;1.57;;;14.20;92.50;;;;;;5049415;28;20499;-65
2022/03/14 11:14:43;;;;;;;3.10;1.27;;;14.50;92.30;;;;;;5048874;28;20444;-65
2022/03/14 11:17:15;;;;;;;4.80;1.73;;;14.80;92.30;;;;;;5049070;28;20450;-65
2022/03/14 11:19:43;;;;;;;4.83;1.43;;;14.80;91.50;;;;;;5052209;28;20444;-65
2022/03/14 11:22:11;;;;;;;3.70;1.13;;;14.70;91.80;;;;;;5052855;28;20480;-65
2022/03/14 11:24:41;;;;;;;4.40;1.50;;;14.60;91.40;;;;;;5052516;28;20443;-64
2022/03/14 11:27:14;;;;;;;2.00;0.97;;;14.60;91.80;;;;;;5053000;28;20491;-65
2022/03/14 11:29:44;;;;;;;3.87;1.50;;;14.90;91.70;;;;;;5052594;28;20454;-65
2022/03/14 11:32:11;;;;;;;3.77;1.40;;;15.80;91.70;;;;;;5052657;28;20507;-65
2022/03/14 11:34:38;;;;;;;3.07;1.50;;;16.90;90.60;;;;;;5052678;28;20452;-65
2022/03/14 11:37:05;;;;;;;5.20;1.27;;;17.10;87.60;;;;;;5052609;28;20546;-66
2022/03/14 11:39:34;;;;;;;5.23;1.10;;;16.70;86.90;;;;;;5052663;28;20444;-65
2022/03/14 11:42:00;;;;;;;3.50;1.30;;;16.10;85.90;;;;;;5052470;28;20510;-65
2022/03/14 11:44:28;;;;;;;2.43;1.03;;;15.80;87.90;;;;;;5051978;28;20470;-66
2022/03/14 11:46:58;;;;;;;2.37;1.03;;;16.30;85.00;;;;;;5052541;28;20480;-65
2022/03/14 11:49:27;;;;;;;5.23;1.27;;;16.70;83.50;;;;;;5052500;28;20451;-65
2022/03/14 11:52:08;;;;;;;3.23;1.27;;;17.20;84.00;;;;;;5052090;28;20554;-65
2022/03/14 11:54:40;;;;;;;2.63;1.00;;;17.60;80.70;;;;;;5052132;28;20467;-65
2022/03/14 11:57:08;;;;;;;3.87;1.10;;;18.30;77.80;;;;;;5052290;28;20444;-65
2022/03/14 11:59:36;;;;;;;3.53;1.00;;;18.90;76.50;;;;;;5052385;28;20471;-65
2022/03/14 12:02:06;;;;;;;3.70;1.03;;;19.00;76.00;;;;;;5052320;28;20467;-65
2022/03/14 12:04:35;;;;;;;4.60;1.43;;;18.90;73.30;;;;;;5051876;28;20833;-65
2022/03/14 12:07:10;;;;;;;4.50;1.40;;;19.60;72.70;;;;;;5052123;28;21005;-65
2022/03/14 12:09:48;;;;;;;3.97;1.00;;;19.90;72.70;;;;;;5052685;28;20446;-65
2022/03/14 12:12:29;;;;;;;3.97;1.40;;;20.30;71.00;;;;;;5052287;28;20490;-65
2022/03/14 12:14:58;;;;;;;4.77;2.10;;;20.20;68.80;;;;;;5051861;28;20530;-65
2022/03/14 12:17:28;;;;;;;2.90;0.90;;;21.30;66.70;;;;;;5052519;28;20458;-65
2022/03/14 12:19:57;;;;;;;4.30;1.20;;;21.90;63.40;;;;;;5051818;28;20450;-65
2022/03/14 12:22:44;;;;;;;2.87;1.50;;;22.40;63.10;;;;;;5051610;28;20475;-65
2022/03/14 12:25:14;;;;;;;2.53;1.10;;;21.70;59.00;;;;;;5051783;28;20448;-65
2022/03/14 12:27:42;;;;;;;3.83;1.53;;;20.50;62.40;;;;;;5051564;28;20480;-65
2022/03/14 12:30:31;;;;;;;4.97;1.47;;;20.90;61.60;;;;;;5050359;28;20448;-65
2022/03/14 12:33:03;;;;;;;2.80;1.10;;;21.10;59.90;;;;;;5051596;28;20842;-65
2022/03/14 12:35:33;;;;;;;2.60;0.90;;;20.80;62.00;;;;;;5051237;28;20451;-65
2022/03/14 12:38:14;;;;;;;4.03;1.10;;;20.50;65.40;;;;;;5051562;28;20818;-65
2022/03/14 12:40:47;;;;;;;3.17;1.37;;;20.10;64.40;;;;;;5051330;28;20929;-65
2022/03/14 12:43:32;;;;;;;7.03;1.90;;;20.10;66.70;;;;;;5049825;28;20495;-65
2022/03/14 12:46:00;;;;;;;3.80;1.10;;;20.10;66.20;;;;;;5054843;28;21339;-65
2022/03/14 12:48:29;;;;;;;2.70;1.13;;;20.00;64.10;;;;;;5045708;28;20440;-65
2022/03/14 12:51:04;;;;;;;2.53;1.10;;;19.60;65.00;;;;;;5049547;28;20458;-65
2022/03/14 12:53:47;;;;;;;3.77;1.10;;;19.40;66.20;;;;;;5053420;28;20547;-65
2022/03/14 12:56:24;;;;;;;5.53;1.30;;;19.90;67.20;;;;;;5044439;28;20529;-65